Time;durP1;ratioP1;P1;durP2;ratioP2;P2;SDS_P1;SDS_P2;PMS_P1;PMS_P2;Temp;Humidity;BMP_temperature;BMP_pressure;BME280_temperature;BME280_humidity;BME280_pressure;Samples;Min_cycle;Max_cycle;Signal;HPM_P1;HPM_P2
2021/08/15 00:01:47;;;;;;;12.68;4.65;;;;;;;15.99;nan;101662.31;6244099;22;20554;-81
2021/08/15 00:04:12;;;;;;;10.77;4.63;;;;;;;15.94;nan;101654.97;6245269;22;20003;-81
2021/08/15 00:06:38;;;;;;;10.45;4.32;;;;;;;15.88;nan;101656.03;6245562;22;20480;-81
2021/08/15 00:09:04;;;;;;;14.00;4.88;;;;;;;15.83;nan;101656.00;6243942;22;20004;-81
2021/08/15 00:11:29;;;;;;;12.35;4.82;;;;;;;15.79;nan;101654.88;6246222;22;20536;-82
2021/08/15 00:13:55;;;;;;;8.75;5.18;;;;;;;15.72;nan;101651.59;6247607;22;20003;-81
2021/08/15 00:16:20;;;;;;;10.30;5.03;;;;;;;15.70;nan;101653.75;6272123;22;20004;-81
2021/08/15 00:18:46;;;;;;;11.68;5.45;;;;;;;15.67;nan;101656.97;6244978;22;20000;-81
2021/08/15 00:21:13;;;;;;;13.95;4.60;;;;;;;15.62;nan;101654.25;6274154;22;20002;-83
2021/08/15 00:23:39;;;;;;;13.10;4.38;;;;;;;15.58;nan;101658.47;6270071;22;20385;-81
2021/08/15 00:26:05;;;;;;;13.35;4.95;;;;;;;15.54;nan;101658.19;6268570;22;20018;-82
2021/08/15 00:28:30;;;;;;;10.52;4.90;;;;;;;15.53;nan;101655.75;6242934;22;20014;-82
2021/08/15 00:30:56;;;;;;;13.85;5.07;;;;;;;15.48;nan;101647.63;6243607;22;20355;-83
2021/08/15 00:33:21;;;;;;;15.52;5.00;;;;;;;15.38;nan;101649.16;6243488;22;20008;-82
2021/08/15 00:35:47;;;;;;;14.63;5.40;;;;;;;15.33;nan;101651.81;6243635;22;20335;-82
2021/08/15 00:38:12;;;;;;;10.05;4.25;;;;;;;15.26;nan;101645.00;6270940;22;20003;-82
2021/08/15 00:40:38;;;;;;;12.10;5.18;;;;;;;15.21;nan;101640.38;6243026;22;20057;-82
2021/08/15 00:43:03;;;;;;;11.25;4.28;;;;;;;15.19;nan;101642.53;6243149;22;20077;-81
2021/08/15 00:45:29;;;;;;;9.77;4.80;;;;;;;15.18;nan;101645.47;6270295;22;20017;-81
2021/08/15 00:47:54;;;;;;;7.45;4.45;;;;;;;15.14;nan;101645.19;6242470;22;20010;-82
2021/08/15 00:50:20;;;;;;;15.13;4.88;;;;;;;15.09;nan;101639.75;6243324;22;20018;-82
2021/08/15 00:52:45;;;;;;;11.68;4.93;;;;;;;15.07;nan;101641.88;6271618;22;20019;-82
2021/08/15 00:55:12;;;;;;;7.53;4.07;;;;;;;15.02;nan;101637.25;6244122;22;20339;-81
2021/08/15 00:57:44;;;;;;;11.60;4.55;;;;;;;15.00;nan;101646.66;6271619;22;20431;-82
2021/08/15 01:00:11;;;;;;;10.00;4.43;;;;;;;15.00;nan;101643.97;6243752;22;20034;-82
2021/08/15 01:02:46;;;;;;;11.05;4.57;;;;;;;14.90;nan;101638.47;6243398;22;20004;-82
2021/08/15 01:05:12;;;;;;;12.82;5.03;;;;;;;14.90;nan;101646.56;6242694;22;20554;-81
2021/08/15 01:07:40;;;;;;;9.77;4.78;;;;;;;14.90;nan;101649.25;6244145;22;20053;-82
2021/08/15 01:10:07;;;;;;;14.45;5.47;;;;;;;14.84;nan;101647.59;6247038;22;20014;-82
2021/08/15 01:12:33;;;;;;;13.90;5.30;;;;;;;14.81;nan;101647.03;6247870;22;20129;-82
2021/08/15 01:14:59;;;;;;;11.50;4.22;;;;;;;14.75;nan;101650.75;6248122;22;20031;-82
2021/08/15 01:17:29;;;;;;;10.73;4.80;;;;;;;14.70;nan;101647.16;6246916;22;19999;-83
2021/08/15 01:19:56;;;;;;;10.30;4.80;;;;;;;14.65;nan;101649.81;6275001;22;20045;-82
2021/08/15 01:22:26;;;;;;;11.32;4.57;;;;;;;14.60;nan;101647.88;6248179;22;20083;-82
2021/08/15 01:24:58;;;;;;;9.20;5.30;;;;;;;14.60;nan;101639.78;6247997;22;20402;-82
2021/08/15 01:27:25;;;;;;;11.02;5.28;;;;;;;14.58;nan;101639.22;6274151;22;20050;-82
2021/08/15 01:29:51;;;;;;;10.60;5.47;;;;;;;14.60;nan;101638.97;6247114;22;19999;-82
2021/08/15 01:32:17;;;;;;;9.00;5.10;;;;;;;14.57;nan;101637.59;6246917;22;20002;-82
2021/08/15 01:34:43;;;;;;;8.82;4.72;;;;;;;14.56;nan;101641.38;6246956;22;20458;-81
2021/08/15 01:37:10;;;;;;;11.98;4.75;;;;;;;14.58;nan;101639.22;6247822;22;20007;-82
2021/08/15 01:39:43;;;;;;;11.70;4.65;;;;;;;14.55;nan;101639.75;6249725;22;20016;-82
2021/08/15 01:42:08;;;;;;;7.72;5.07;;;;;;;14.54;nan;101638.09;6246835;22;20003;-82
2021/08/15 01:44:34;;;;;;;9.18;4.25;;;;;;;14.51;nan;101635.91;6247105;22;20091;-81
2021/08/15 01:47:00;;;;;;;14.55;4.93;;;;;;;14.51;nan;101639.41;6245980;22;20415;-81
2021/08/15 01:49:25;;;;;;;11.27;4.57;;;;;;;14.47;nan;101637.47;6246328;22;20003;-82
2021/08/15 01:51:51;;;;;;;8.82;4.28;;;;;;;14.39;nan;101638.72;6246338;22;20095;-81
2021/08/15 01:54:16;;;;;;;11.45;4.53;;;;;;;14.35;nan;101634.88;6246671;22;20039;-82
2021/08/15 01:56:43;;;;;;;9.10;5.00;;;;;;;14.36;nan;101635.69;6246446;22;20008;-81
2021/08/15 01:59:09;;;;;;;12.98;5.05;;;;;;;14.40;nan;101636.84;6273529;22;20033;-81
2021/08/15 02:01:34;;;;;;;9.80;5.00;;;;;;;14.39;nan;101635.22;6246021;22;20004;-81
2021/08/15 02:04:00;;;;;;;13.38;5.00;;;;;;;14.39;nan;101632.50;6246643;22;20000;-82
2021/08/15 02:06:26;;;;;;;9.98;4.90;;;;;;;14.39;nan;101635.22;6245792;22;20006;-81
2021/08/15 02:08:51;;;;;;;11.75;4.95;;;;;;;14.42;nan;101638.22;6245464;22;20012;-81
2021/08/15 02:11:18;;;;;;;11.80;4.88;;;;;;;14.48;nan;101644.50;6246314;22;20333;-81
2021/08/15 02:13:45;;;;;;;7.68;4.32;;;;;;;14.56;nan;101632.47;6245699;22;20031;-81
2021/08/15 02:16:11;;;;;;;16.40;5.03;;;;;;;14.57;nan;101637.59;6246093;22;20062;-81
2021/08/15 02:18:37;;;;;;;17.85;6.05;;;;;;;14.64;nan;101627.41;6272819;22;20009;-82
2021/08/15 02:21:02;;;;;;;16.05;4.88;;;;;;;14.70;nan;101631.78;6246200;22;20003;-82
2021/08/15 02:23:28;;;;;;;11.80;4.80;;;;;;;14.75;nan;101623.78;6244685;22;20035;-82
2021/08/15 02:25:53;;;;;;;8.23;4.70;;;;;;;14.85;nan;101616.84;6246461;22;20344;-82
2021/08/15 02:28:19;;;;;;;9.88;5.38;;;;;;;14.90;nan;101620.41;6245638;22;20366;-83
2021/08/15 02:30:45;;;;;;;8.80;4.80;;;;;;;14.91;nan;101618.53;6246139;22;20090;-82
2021/08/15 02:33:10;;;;;;;10.23;4.55;;;;;;;14.72;nan;101613.50;6245804;22;20011;-82
2021/08/15 02:35:36;;;;;;;7.78;4.38;;;;;;;14.60;nan;101615.50;6273177;22;20489;-82
2021/08/15 02:38:02;;;;;;;9.82;4.50;;;;;;;14.72;nan;101605.41;6245132;22;20006;-82
2021/08/15 02:40:28;;;;;;;16.60;5.22;;;;;;;14.79;nan;101608.69;6246177;22;19996;-82
2021/08/15 02:42:55;;;;;;;11.43;5.55;;;;;;;14.82;nan;101608.19;6246099;22;20023;-82
2021/08/15 02:45:24;;;;;;;9.38;5.13;;;;;;;14.66;nan;101603.69;6273989;22;20089;-82
2021/08/15 02:47:50;;;;;;;11.43;5.68;;;;;;;14.62;nan;101596.38;6244561;22;20086;-82
2021/08/15 02:50:17;;;;;;;9.85;4.68;;;;;;;14.64;nan;101600.44;6245982;22;20004;-82
2021/08/15 02:52:43;;;;;;;8.48;4.60;;;;;;;14.68;nan;101601.56;6272661;22;20003;-82
2021/08/15 02:55:09;;;;;;;10.13;4.80;;;;;;;14.68;nan;101603.44;6246659;22;20007;-82
2021/08/15 02:57:35;;;;;;;11.07;5.25;;;;;;;14.61;nan;101592.06;6246013;22;20059;-82
2021/08/15 03:00:01;;;;;;;8.30;4.75;;;;;;;14.57;nan;101602.53;6246205;22;20038;-81
2021/08/15 03:02:27;;;;;;;9.43;5.05;;;;;;;14.57;nan;101604.44;6245462;22;20007;-82
2021/08/15 03:04:53;;;;;;;15.15;4.45;;;;;;;14.48;nan;101593.25;6246255;22;20000;-82
2021/08/15 03:07:18;;;;;;;7.72;4.30;;;;;;;14.36;nan;101596.09;6246263;22;19999;-82
2021/08/15 03:09:46;;;;;;;11.38;4.40;;;;;;;14.45;nan;101601.88;6244832;22;20000;-82
2021/08/15 03:12:12;;;;;;;11.30;5.13;;;;;;;14.44;nan;101598.34;6245803;22;20003;-81
2021/08/15 03:14:38;;;;;;;13.23;5.22;;;;;;;14.35;nan;101596.31;6273413;22;20011;-82
2021/08/15 03:17:04;;;;;;;11.52;4.93;;;;;;;14.39;nan;101600.16;6245991;22;20006;-81
2021/08/15 03:19:30;;;;;;;10.52;5.32;;;;;;;14.32;nan;101603.03;6272848;22;20006;-82
2021/08/15 03:21:55;;;;;;;9.75;5.05;;;;;;;14.24;nan;101611.56;6246646;22;19999;-82
2021/08/15 03:24:21;;;;;;;10.57;5.25;;;;;;;14.25;nan;101607.00;6246411;22;20462;-82
2021/08/15 03:26:47;;;;;;;13.10;4.97;;;;;;;14.20;nan;101607.75;6272946;22;20507;-82
2021/08/15 03:29:17;;;;;;;10.18;4.78;;;;;;;14.24;nan;101611.56;6244903;22;19999;-82
2021/08/15 03:31:45;;;;;;;11.35;4.90;;;;;;;14.23;nan;101614.53;6244600;22;20015;-81
2021/08/15 03:34:12;;;;;;;8.15;4.60;;;;;;;14.27;nan;101612.94;6246188;22;20008;-82
2021/08/15 03:36:38;;;;;;;10.63;4.60;;;;;;;14.15;nan;101619.25;6272789;22;20323;-82
2021/08/15 03:39:05;;;;;;;9.98;4.63;;;;;;;14.29;nan;101618.91;6246161;22;20008;-81
2021/08/15 03:41:30;;;;;;;13.40;5.00;;;;;;;14.30;nan;101613.25;6245569;22;20008;-81
2021/08/15 03:43:56;;;;;;;8.98;4.72;;;;;;;14.40;nan;101616.09;6245939;22;20639;-82
2021/08/15 03:46:22;;;;;;;13.05;4.90;;;;;;;14.41;nan;101609.63;6245888;22;20423;-82
2021/08/15 03:48:48;;;;;;;10.93;5.00;;;;;;;14.46;nan;101620.47;6245627;22;20010;-82
2021/08/15 03:51:14;;;;;;;10.50;4.75;;;;;;;14.46;nan;101611.59;6245831;22;20000;-81
2021/08/15 03:53:39;;;;;;;8.98;4.70;;;;;;;14.49;nan;101619.97;6246033;22;20019;-81
2021/08/15 03:56:05;;;;;;;10.48;4.57;;;;;;;14.50;nan;101612.69;6245418;22;20473;-82
2021/08/15 03:58:31;;;;;;;11.13;4.97;;;;;;;14.41;nan;101619.59;6245869;22;20051;-82
2021/08/15 04:00:56;;;;;;;8.27;4.90;;;;;;;14.35;nan;101620.56;6245753;22;20015;-82
2021/08/15 04:03:22;;;;;;;10.55;5.38;;;;;;;14.43;nan;101621.00;6245757;22;20006;-81
2021/08/15 04:05:49;;;;;;;10.65;4.80;;;;;;;14.45;nan;101618.84;6246326;22;20427;-82
2021/08/15 04:08:14;;;;;;;15.23;5.22;;;;;;;14.44;nan;101617.22;6245363;22;20003;-82
2021/08/15 04:10:40;;;;;;;8.10;4.90;;;;;;;14.46;nan;101619.66;6245427;22;20424;-81
2021/08/15 04:13:05;;;;;;;11.05;4.80;;;;;;;14.41;nan;101616.88;6245614;22;20042;-82
2021/08/15 04:15:31;;;;;;;8.18;4.55;;;;;;;14.40;nan;101616.09;6245813;22;20065;-82
2021/08/15 04:17:57;;;;;;;12.15;5.22;;;;;;;14.43;nan;101622.84;6246346;22;20007;-82
2021/08/15 04:20:23;;;;;;;11.18;4.85;;;;;;;14.50;nan;101620.78;6246406;22;20010;-82
2021/08/15 04:22:49;;;;;;;7.82;4.40;;;;;;;14.56;nan;101619.78;6245693;22;20201;-82
2021/08/15 04:25:15;;;;;;;10.50;5.35;;;;;;;14.70;nan;101625.59;6248524;22;20443;-82
2021/08/15 04:27:41;;;;;;;8.05;4.43;;;;;;;14.81;nan;101616.53;6244987;22;20011;-81
2021/08/15 04:30:08;;;;;;;11.32;4.32;;;;;;;14.90;nan;101617.72;6244475;22;20037;-81
2021/08/15 04:32:34;;;;;;;11.25;4.85;;;;;;;14.95;nan;101611.53;6244605;22;20079;-81
2021/08/15 04:35:00;;;;;;;10.65;4.22;;;;;;;14.90;nan;101615.03;6244777;22;20123;-82
2021/08/15 04:37:26;;;;;;;11.65;5.28;;;;;;;14.99;nan;101605.38;6248278;22;20019;-82
2021/08/15 04:39:52;;;;;;;8.98;4.75;;;;;;;14.98;nan;101606.44;6247114;22;20003;-81
2021/08/15 04:42:18;;;;;;;9.15;5.15;;;;;;;14.95;nan;101616.94;6246961;22;19996;-82
2021/08/15 04:44:44;;;;;;;9.38;4.95;;;;;;;14.92;nan;101617.47;6249085;22;20061;-82
2021/08/15 04:47:09;;;;;;;11.18;4.93;;;;;;;14.88;nan;101611.72;6259720;22;20008;-82
2021/08/15 04:49:35;;;;;;;13.43;4.80;;;;;;;14.85;nan;101612.25;6273502;22;20002;-83
2021/08/15 04:52:00;;;;;;;8.23;4.65;;;;;;;14.91;nan;101611.25;6255248;22;20003;-81
2021/08/15 04:54:29;;;;;;;12.20;4.88;;;;;;;14.93;nan;101608.28;6247198;22;20003;-82
2021/08/15 04:56:55;;;;;;;9.82;4.90;;;;;;;15.00;nan;101603.50;6248331;22;20007;-82
2021/08/15 04:59:21;;;;;;;9.68;5.90;;;;;;;15.02;nan;101612.13;6248324;22;20313;-82
2021/08/15 05:01:46;;;;;;;11.25;4.82;;;;;;;15.09;nan;101601.97;6248354;22;20086;-81
2021/08/15 05:04:12;;;;;;;9.13;4.90;;;;;;;15.14;nan;101601.19;6248998;22;20604;-82
2021/08/15 05:06:37;;;;;;;11.65;4.55;;;;;;;15.20;nan;101598.25;6275173;22;20438;-81
2021/08/15 05:09:04;;;;;;;12.20;5.13;;;;;;;15.10;nan;101595.50;6247487;22;20003;-81
2021/08/15 05:11:30;;;;;;;12.32;4.82;;;;;;;15.23;nan;101605.03;6247357;22;20007;-81
2021/08/15 05:13:56;;;;;;;10.07;4.93;;;;;;;15.43;nan;101603.28;6247638;22;20011;-81
2021/08/15 05:16:21;;;;;;;9.02;4.50;;;;;;;15.64;nan;101604.28;6246629;22;20091;-82
2021/08/15 05:18:47;;;;;;;10.82;5.32;;;;;;;15.77;nan;101591.38;6246819;22;20008;-82
2021/08/15 05:21:13;;;;;;;9.65;4.82;;;;;;;15.84;nan;101598.19;6246343;22;20000;-81
2021/08/15 05:23:38;;;;;;;8.73;4.93;;;;;;;15.92;nan;101599.56;6246763;22;20035;-81
2021/08/15 05:26:04;;;;;;;12.13;4.95;;;;;;;15.68;nan;101596.47;6248002;22;20014;-81
2021/08/15 05:28:29;;;;;;;11.07;4.93;;;;;;;15.84;nan;101606.28;6274341;22;20716;-82
2021/08/15 05:30:55;;;;;;;8.68;5.03;;;;;;;16.04;nan;101612.88;6247591;22;20003;-81
2021/08/15 05:33:21;;;;;;;15.18;4.57;;;;;;;16.19;nan;101615.63;6247278;22;20007;-82
2021/08/15 05:35:46;;;;;;;10.77;4.28;;;;;;;16.19;nan;101611.06;6248040;22;20011;-81
2021/08/15 05:38:12;;;;;;;14.73;4.38;;;;;;;16.11;nan;101613.44;6247502;22;20018;-82
2021/08/15 05:40:37;;;;;;;10.77;3.92;;;;;;;16.43;nan;101605.16;6274254;22;19998;-81
2021/08/15 05:43:03;;;;;;;9.15;3.97;;;;;;;16.82;nan;101598.25;6247116;22;20095;-81
2021/08/15 05:45:29;;;;;;;10.30;4.35;;;;;;;17.07;nan;101600.16;6242760;22;20008;-49
2021/08/15 05:47:54;;;;;;;13.52;4.63;;;;;;;17.39;nan;101599.06;6241287;22;20451;-49
2021/08/15 05:50:20;;;;;;;9.25;3.70;;;;;;;17.64;nan;101600.94;6269900;22;20014;-49
2021/08/15 05:52:45;;;;;;;12.93;3.47;;;;;;;17.92;nan;101608.44;6270196;22;20398;-49
2021/08/15 05:55:12;;;;;;;14.32;4.45;;;;;;;18.01;nan;101611.41;6270660;22;20010;-48
2021/08/15 05:57:37;;;;;;;14.05;4.50;;;;;;;18.12;nan;101607.56;6269309;22;19995;-50
2021/08/15 06:00:05;;;;;;;11.75;3.50;;;;;;;18.00;nan;101620.66;6269442;22;20038;-50
2021/08/15 06:02:31;;;;;;;13.38;4.03;;;;;;;18.36;nan;101611.28;6270178;22;20004;-49
2021/08/15 06:04:56;;;;;;;12.35;3.22;;;;;;;18.47;nan;101611.19;6269690;22;20425;-49
2021/08/15 06:07:22;;;;;;;9.60;3.55;;;;;;;18.70;nan;101613.28;6270512;22;19999;-48
2021/08/15 06:09:47;;;;;;;10.85;4.03;;;;;;;18.95;nan;101598.72;6268138;22;20004;-49
2021/08/15 06:12:13;;;;;;;14.63;4.32;;;;;;;18.83;nan;101598.25;6269110;22;20069;-50
2021/08/15 06:14:38;;;;;;;12.05;3.95;;;;;;;18.28;nan;101597.47;6269852;22;20348;-49
2021/08/15 06:17:04;;;;;;;10.32;3.72;;;;;;;18.47;nan;101600.34;6269157;22;19999;-49
2021/08/15 06:19:29;;;;;;;13.32;3.78;;;;;;;18.17;nan;101585.88;6268249;22;20007;-48
2021/08/15 06:21:55;;;;;;;7.32;3.33;;;;;;;18.24;nan;101582.84;6269658;22;19996;-50
2021/08/15 06:24:20;;;;;;;11.02;3.53;;;;;;;18.15;nan;101588.03;6270037;22;20447;-51
2021/08/15 06:26:46;;;;;;;8.85;3.45;;;;;;;18.39;nan;101578.16;6268568;22;20078;-51
2021/08/15 06:29:11;;;;;;;10.73;4.20;;;;;;;18.50;nan;101576.19;6268053;22;20007;-51
2021/08/15 06:31:37;;;;;;;9.23;3.15;;;;;;;18.50;nan;101575.38;6268101;22;20068;-48
2021/08/15 06:34:05;;;;;;;5.78;2.90;;;;;;;18.52;nan;101586.78;6267731;22;20015;-49
2021/08/15 06:36:30;;;;;;;13.32;4.50;;;;;;;18.64;nan;101589.97;6267964;22;20034;-49
2021/08/15 06:38:56;;;;;;;8.00;3.47;;;;;;;18.87;nan;101586.56;6267196;22;20000;-52
2021/08/15 06:41:21;;;;;;;7.65;3.30;;;;;;;18.98;nan;101590.78;6268910;22;20435;-49
2021/08/15 06:43:47;;;;;;;13.50;4.05;;;;;;;19.09;nan;101596.16;6268827;22;20015;-51
2021/08/15 06:46:13;;;;;;;11.27;4.05;;;;;;;19.02;nan;101591.84;6268777;22;20011;-48
2021/08/15 06:48:39;;;;;;;10.45;4.07;;;;;;;19.26;nan;101596.56;6268062;22;19999;-49
2021/08/15 06:51:05;;;;;;;9.77;3.35;;;;;;;19.36;nan;101596.44;6268178;22;20021;-48
2021/08/15 06:53:31;;;;;;;9.15;3.75;;;;;;;19.50;nan;101607.47;6266978;22;20015;-52
2021/08/15 06:56:01;;;;;;;8.88;3.72;;;;;;;19.49;nan;101603.13;6268090;22;20125;-49
2021/08/15 06:58:27;;;;;;;12.50;4.05;;;;;;;19.67;nan;101604.34;6265533;22;20010;-49
2021/08/15 07:00:53;;;;;;;8.90;3.42;;;;;;;19.78;nan;101603.94;6264724;22;20000;-52
2021/08/15 07:03:18;;;;;;;11.82;3.85;;;;;;;19.96;nan;101605.09;6266789;22;20003;-51
2021/08/15 07:05:44;;;;;;;11.38;3.05;;;;;;;19.98;nan;101610.25;6265204;22;20003;-51
2021/08/15 07:08:09;;;;;;;6.95;2.85;;;;;;;20.09;nan;101609.81;6266175;22;20321;-50
2021/08/15 07:10:35;;;;;;;10.50;3.20;;;;;;;20.17;nan;101611.91;6266651;22;19996;-48
2021/08/15 07:13:07;;;;;;;9.80;2.97;;;;;;;20.30;nan;101598.69;6266414;22;20376;-48
2021/08/15 07:15:33;;;;;;;6.28;2.83;;;;;;;20.26;nan;101608.53;6266219;22;20070;-49
2021/08/15 07:17:59;;;;;;;8.02;2.47;;;;;;;20.11;nan;101613.09;6265135;22;20000;-49
2021/08/15 07:20:25;;;;;;;10.45;3.50;;;;;;;20.56;nan;101599.97;6266226;22;20516;-51
2021/08/15 07:22:51;;;;;;;6.07;2.42;;;;;;;20.61;nan;101599.91;6265752;22;20000;-49
2021/08/15 07:25:17;;;;;;;5.60;2.60;;;;;;;20.74;nan;101596.44;6238024;22;20377;-48
2021/08/15 07:27:43;;;;;;;13.52;3.25;;;;;;;20.71;nan;101602.50;6265666;22;20083;-49
2021/08/15 07:30:10;;;;;;;8.82;3.35;;;;;;;20.26;nan;101603.09;6266512;22;20023;-49
2021/08/15 07:32:47;;;;;;;7.43;2.30;;;;;;;20.69;nan;101593.81;6265502;22;20083;-49
2021/08/15 07:35:12;;;;;;;10.15;3.22;;;;;;;21.39;nan;101599.22;6265878;22;20012;-50
2021/08/15 07:37:38;;;;;;;13.23;3.22;;;;;;;21.59;nan;101595.31;6265482;22;20365;-52
2021/08/15 07:40:04;;;;;;;7.15;2.95;;;;;;;21.81;nan;101591.06;6265117;22;20027;-49
2021/08/15 07:42:30;;;;;;;11.38;2.58;;;;;;;22.00;nan;101591.78;6266136;22;20000;-50
2021/08/15 07:44:55;;;;;;;9.05;2.97;;;;;;;21.77;nan;101592.81;6266572;22;20348;-50
2021/08/15 07:47:21;;;;;;;7.40;2.75;;;;;;;20.99;nan;101603.41;6265360;22;20061;-52
2021/08/15 07:49:46;;;;;;;5.43;2.90;;;;;;;20.72;nan;101604.09;6264951;22;20458;-51
2021/08/15 07:52:12;;;;;;;9.50;3.13;;;;;;;21.25;nan;101601.09;6264777;22;20391;-51
2021/08/15 07:54:37;;;;;;;5.35;2.50;;;;;;;21.42;nan;101600.53;6266160;22;20011;-50
2021/08/15 07:57:03;;;;;;;6.57;2.65;;;;;;;21.29;nan;101604.03;6265007;22;20010;-48
2021/08/15 07:59:29;;;;;;;5.38;2.75;;;;;;;21.39;nan;101599.22;6264140;22;20014;-50
2021/08/15 08:01:54;;;;;;;6.75;2.53;;;;;;;21.28;nan;101586.06;6265297;22;20070;-48
2021/08/15 08:04:20;;;;;;;7.75;3.00;;;;;;;21.68;nan;101593.47;6265132;22;20007;-50
2021/08/15 08:06:45;;;;;;;8.93;3.85;;;;;;;21.96;nan;101588.03;6264908;22;20006;-49
2021/08/15 08:09:11;;;;;;;10.35;2.97;;;;;;;22.35;nan;101592.97;6265000;22;20003;-48
2021/08/15 08:11:36;;;;;;;9.23;2.92;;;;;;;22.27;nan;101593.72;6264767;22;20050;-50
2021/08/15 08:14:02;;;;;;;8.10;2.95;;;;;;;21.84;nan;101583.09;6261677;22;20007;-50
2021/08/15 08:16:27;;;;;;;8.20;2.95;;;;;;;22.11;nan;101587.75;6264487;22;20003;-51
2021/08/15 08:18:53;;;;;;;12.18;3.05;;;;;;;22.61;nan;101585.00;6263606;22;20000;-49
2021/08/15 08:21:19;;;;;;;8.63;3.38;;;;;;;23.07;nan;101592.94;6237045;22;20046;-49
2021/08/15 08:23:44;;;;;;;8.90;3.05;;;;;;;23.28;nan;101576.81;6264201;22;20003;-51
2021/08/15 08:26:10;;;;;;;5.38;2.95;;;;;;;23.30;nan;101584.69;6262474;22;20364;-49
2021/08/15 08:28:36;;;;;;;10.98;3.75;;;;;;;22.98;nan;101589.34;6263428;22;20267;-50
2021/08/15 08:31:02;;;;;;;6.95;3.38;;;;;;;22.25;nan;101587.72;6263844;22;20079;-49
2021/08/15 08:33:28;;;;;;;9.45;3.58;;;;;;;22.87;nan;101582.50;6264197;22;20039;-52
2021/08/15 08:35:54;;;;;;;10.05;3.22;;;;;;;23.06;nan;101579.59;6263995;22;20034;-49
2021/08/15 08:38:19;;;;;;;7.65;3.00;;;;;;;22.64;nan;101575.41;6264256;22;20235;-53
2021/08/15 08:40:47;;;;;;;11.10;4.10;;;;;;;22.32;nan;101566.28;6263298;22;19999;-51
2021/08/15 08:43:13;;;;;;;6.93;3.70;;;;;;;22.14;nan;101569.97;6264506;22;20011;-48
2021/08/15 08:45:41;;;;;;;14.63;3.47;;;;;;;22.05;nan;101571.78;6264600;22;20007;-48
2021/08/15 08:48:07;;;;;;;9.48;4.00;;;;;;;21.42;nan;101560.44;6264305;22;20003;-51
2021/08/15 08:50:33;;;;;;;11.18;3.85;;;;;;;21.46;nan;101559.84;6263995;22;20014;-50
2021/08/15 08:52:59;;;;;;;8.48;3.55;;;;;;;21.73;nan;101559.06;6263301;22;20012;-50
2021/08/15 08:55:25;;;;;;;7.80;3.42;;;;;;;22.02;nan;101559.53;6263779;22;20126;-48
2021/08/15 08:57:51;;;;;;;12.68;4.53;;;;;;;21.78;nan;101558.94;6263320;22;20010;-51
2021/08/15 09:00:18;;;;;;;7.90;3.55;;;;;;;22.19;nan;101561.66;6264183;22;20007;-49
2021/08/15 09:02:44;;;;;;;9.85;3.45;;;;;;;22.77;nan;101555.41;6264473;22;20053;-53
2021/08/15 09:05:10;;;;;;;5.97;3.15;;;;;;;22.86;nan;101545.38;6264588;22;20426;-49
2021/08/15 09:07:38;;;;;;;11.30;3.22;;;;;;;22.78;nan;101546.06;6264189;22;20118;-52
2021/08/15 09:10:09;;;;;;;8.02;3.80;;;;;;;22.74;nan;101542.38;6262555;22;20310;-52
2021/08/15 09:12:39;;;;;;;5.43;3.53;;;;;;;23.14;nan;101535.88;6264220;22;20066;-49
2021/08/15 09:15:22;;;;;;;10.75;4.88;;;;;;;23.29;nan;101531.94;6263876;22;20033;-49
2021/08/15 09:17:48;;;;;;;9.45;4.05;;;;;;;23.63;nan;101536.78;6263437;22;20130;-48
2021/08/15 09:20:24;;;;;;;10.77;4.32;;;;;;;23.91;nan;101542.03;6265063;22;20539;-51
2021/08/15 09:22:51;;;;;;;8.23;4.40;;;;;;;24.09;nan;101541.72;6265016;22;20003;-52
2021/08/15 09:25:20;;;;;;;6.85;3.45;;;;;;;23.85;nan;101544.06;6263834;22;20082;-51
2021/08/15 09:27:48;;;;;;;8.38;3.25;;;;;;;24.37;nan;101536.78;6264090;22;20008;-51
2021/08/15 09:30:26;;;;;;;7.60;3.63;;;;;;;24.18;nan;101530.78;6267230;22;20006;-52
2021/08/15 09:33:05;;;;;;;8.90;3.92;;;;;;;23.33;nan;101543.84;6267875;22;20439;-51
2021/08/15 09:35:35;;;;;;;5.60;3.60;;;;;;;23.78;nan;101533.59;6267608;22;20014;-53
2021/08/15 09:38:12;;;;;;;8.55;4.05;;;;;;;23.30;nan;101535.47;6266566;22;20008;-51
2021/08/15 09:40:41;;;;;;;6.95;3.33;;;;;;;23.13;nan;101536.19;6267392;22;20010;-50
2021/08/15 09:43:09;;;;;;;6.95;3.70;;;;;;;23.70;nan;101531.66;6267743;22;20027;-51
2021/08/15 09:45:38;;;;;;;7.72;3.30;;;;;;;24.31;nan;101532.59;6266827;22;20016;-49
2021/08/15 09:48:31;;;;;;;5.15;3.13;;;;;;;24.13;nan;101528.19;6266828;22;20004;-48
2021/08/15 09:51:08;;;;;;;7.13;3.72;;;;;;;24.69;nan;101524.50;6266060;22;20003;-51
2021/08/15 09:53:36;;;;;;;10.95;3.85;;;;;;;25.29;nan;101522.78;6266098;22;20065;-48
2021/08/15 09:56:03;;;;;;;9.68;3.28;;;;;;;25.43;nan;101523.34;6239673;22;20087;-51
2021/08/15 09:58:29;;;;;;;8.13;3.80;;;;;;;24.29;nan;101523.09;6267033;22;20015;-51
2021/08/15 10:01:00;;;;;;;8.55;3.33;;;;;;;24.57;nan;101513.41;6267473;22;20003;-47
2021/08/15 10:03:25;;;;;;;9.07;4.00;;;;;;;24.68;nan;101516.63;6265647;22;20562;-51
2021/08/15 10:05:54;;;;;;;6.03;3.50;;;;;;;24.21;nan;101521.09;6267215;22;20087;-53
2021/08/15 10:08:21;;;;;;;6.00;3.13;;;;;;;24.48;nan;101517.28;6266723;22;20003;-50
2021/08/15 10:10:47;;;;;;;6.20;3.40;;;;;;;24.41;nan;101518.56;6265626;22;20007;-49
2021/08/15 10:13:17;;;;;;;6.22;3.50;;;;;;;24.25;nan;101506.47;6266105;22;20007;-50
2021/08/15 10:15:51;;;;;;;6.32;3.58;;;;;;;24.79;nan;101506.94;6266419;22;20087;-49
2021/08/15 10:18:20;;;;;;;9.23;3.00;;;;;;;25.24;nan;101487.31;6264737;22;20556;-49
2021/08/15 10:20:48;;;;;;;7.63;3.20;;;;;;;25.39;nan;101488.69;6267158;22;20082;-49
2021/08/15 10:23:14;;;;;;;8.07;3.30;;;;;;;25.44;nan;101492.03;6266829;22;20010;-49
2021/08/15 10:25:44;;;;;;;7.20;3.72;;;;;;;25.58;nan;101486.34;6264478;22;20011;-47
2021/08/15 10:28:29;;;;;;;12.55;4.30;;;;;;;25.21;nan;101487.97;6265865;22;20144;-49
2021/08/15 10:30:57;;;;;;;8.18;3.25;;;;;;;25.41;nan;101483.69;6221672;22;20069;-48
2021/08/15 10:33:28;;;;;;;11.63;4.30;;;;;;;25.38;nan;101482.41;6266465;22;20011;-48
2021/08/15 10:36:17;;;;;;;8.90;4.10;;;;;;;24.88;nan;101474.81;6239009;22;20004;-50
2021/08/15 10:38:43;;;;;;;7.85;3.72;;;;;;;25.86;nan;101479.25;6266817;22;20003;-47
2021/08/15 10:41:09;;;;;;;8.88;3.45;;;;;;;25.41;nan;101468.03;6265372;22;20076;-49
2021/08/15 10:43:34;;;;;;;5.75;3.55;;;;;;;25.20;nan;101464.41;6266196;22;19999;-51
2021/08/15 10:46:17;;;;;;;4.93;2.97;;;;;;;25.38;nan;101454.97;6266840;22;20418;-49
2021/08/15 10:49:01;;;;;;;7.72;3.45;;;;;;;25.90;nan;101460.97;6266924;22;20011;-50
2021/08/15 10:51:42;;;;;;;14.40;3.75;;;;;;;26.18;nan;101461.22;6265975;22;19996;-52
2021/08/15 10:54:08;;;;;;;6.13;2.97;;;;;;;26.55;nan;101466.06;6264984;22;20018;-50
2021/08/15 10:56:54;;;;;;;5.82;3.15;;;;;;;26.92;nan;101455.97;6265305;22;20007;-48
2021/08/15 10:59:40;;;;;;;6.38;3.53;;;;;;;26.42;nan;101459.75;6266304;22;20008;-49
2021/08/15 11:02:17;;;;;;;9.23;3.97;;;;;;;25.44;nan;101458.31;6265989;22;20067;-49
2021/08/15 11:04:59;;;;;;;8.45;4.40;;;;;;;25.15;nan;101451.69;6265381;22;20198;-49
2021/08/15 11:07:35;;;;;;;7.18;3.08;;;;;;;24.78;nan;101453.25;6238943;22;20090;-50
2021/08/15 11:10:00;;;;;;;6.88;3.63;;;;;;;24.56;nan;101458.94;6262654;22;20445;-49
2021/08/15 11:12:26;;;;;;;9.23;3.85;;;;;;;25.44;nan;101447.34;6238932;22;19996;-49
2021/08/15 11:15:21;;;;;;;6.25;3.33;;;;;;;26.09;nan;101451.44;6265562;22;20008;-50
2021/08/15 11:18:10;;;;;;;6.57;3.00;;;;;;;26.29;nan;101449.81;6265282;22;20389;-52
2021/08/15 11:20:47;;;;;;;5.10;2.75;;;;;;;26.61;nan;101446.31;6265735;22;20087;-53
2021/08/15 11:23:15;;;;;;;5.78;2.90;;;;;;;26.38;nan;101447.81;6266484;22;20006;-51
2021/08/15 11:25:43;;;;;;;8.77;3.70;;;;;;;25.98;nan;101447.50;6264541;22;20086;-52
2021/08/15 11:28:10;;;;;;;7.57;3.22;;;;;;;25.81;nan;101445.69;6238100;22;20079;-51
2021/08/15 11:30:37;;;;;;;5.70;3.38;;;;;;;26.24;nan;101441.81;6261024;22;20448;-51
2021/08/15 11:33:07;;;;;;;7.47;3.65;;;;;;;26.04;nan;101443.44;6262310;22;20019;-48
2021/08/15 11:35:38;;;;;;;6.47;3.50;;;;;;;26.45;nan;101437.91;6262527;22;20000;-48
2021/08/15 11:38:09;;;;;;;5.20;2.70;;;;;;;26.56;nan;101438.25;6264995;22;20007;-50